Time;durP1;ratioP1;P1;durP2;ratioP2;P2;SDS_P1;SDS_P2;PMS_P1;PMS_P2;Temp;Humidity;BMP_temperature;BMP_pressure;BME280_temperature;BME280_humidity;BME280_pressure;Samples;Min_cycle;Max_cycle;Signal;HPM_P1;HPM_P2
2023/02/11 00:00:20;;;;;;;46.13;17.67;;;;;;;-3.51;100.00;100867.25;5054219;28;20056;-71
2023/02/11 00:02:45;;;;;;;48.03;17.38;;;;;;;-3.45;100.00;100864.34;5056564;28;20472;-71
2023/02/11 00:05:11;;;;;;;45.58;18.05;;;;;;;-3.42;100.00;100861.56;5049198;28;20479;-71
2023/02/11 00:07:37;;;;;;;49.58;19.02;;;;;;;-3.48;100.00;100848.59;5048103;28;20021;-71
2023/02/11 00:10:06;;;;;;;47.47;18.73;;;;;;;-3.45;100.00;100848.47;5051710;28;20031;-70
2023/02/11 00:12:35;;;;;;;42.90;17.33;;;;;;;-3.39;100.00;100856.13;5042023;28;20048;-70
2023/02/11 00:15:00;;;;;;;43.67;17.70;;;;;;;-3.44;100.00;100860.75;5043704;28;20487;-70
2023/02/11 00:17:26;;;;;;;47.40;18.70;;;;;;;-3.53;100.00;100859.38;5052555;28;20045;-70
2023/02/11 00:19:51;;;;;;;45.72;18.73;;;;;;;-3.54;100.00;100854.13;5059846;28;20033;-71
2023/02/11 00:22:17;;;;;;;46.95;17.55;;;;;;;-3.52;100.00;100855.78;5048432;28;20048;-71
2023/02/11 00:24:44;;;;;;;48.03;17.10;;;;;;;-3.65;100.00;100848.41;5041636;28;20135;-70
2023/02/11 00:27:11;;;;;;;48.25;18.25;;;;;;;-3.75;100.00;100846.16;5050256;28;20707;-70
2023/02/11 00:29:37;;;;;;;47.03;19.15;;;;;;;-3.72;100.00;100862.81;5043898;28;20035;-71
2023/02/11 00:32:04;;;;;;;53.65;20.00;;;;;;;-3.70;100.00;100851.25;5046126;28;20104;-70
2023/02/11 00:34:36;;;;;;;51.00;20.35;;;;;;;-3.71;100.00;100859.25;5035681;28;20036;-70
2023/02/11 00:37:02;;;;;;;54.88;21.88;;;;;;;-3.78;100.00;100853.34;5035186;28;20056;-70
2023/02/11 00:39:28;;;;;;;58.40;21.45;;;;;;;-3.80;100.00;100860.47;5042297;28;20037;-70
2023/02/11 00:41:53;;;;;;;54.08;21.88;;;;;;;-3.80;100.00;100861.34;5039039;28;20025;-70
2023/02/11 00:44:19;;;;;;;51.75;21.98;;;;;;;-3.81;100.00;100856.97;5044831;28;20028;-70
2023/02/11 00:46:44;;;;;;;57.15;22.55;;;;;;;-3.95;100.00;100858.47;5041846;28;20384;-70
2023/02/11 00:49:11;;;;;;;57.75;22.88;;;;;;;-4.04;100.00;100847.28;5039893;28;20454;-70
2023/02/11 00:51:37;;;;;;;52.83;22.98;;;;;;;-4.09;100.00;100846.63;5042496;28;20091;-70
2023/02/11 00:54:03;;;;;;;56.47;21.92;;;;;;;-4.15;100.00;100832.78;5042012;28;20036;-70
2023/02/11 00:56:29;;;;;;;52.47;21.60;;;;;;;-4.15;100.00;100831.00;5051349;28;20021;-70
2023/02/11 00:58:55;;;;;;;54.75;21.65;;;;;;;-4.18;100.00;100826.69;5057575;28;20058;-70
2023/02/11 01:01:20;;;;;;;59.10;21.88;;;;;;;-4.05;100.00;100832.38;5049325;28;20072;-70
2023/02/11 01:03:45;;;;;;;51.30;20.33;;;;;;;-4.08;100.00;100829.84;5051563;28;20052;-70
2023/02/11 01:06:14;;;;;;;57.10;23.00;;;;;;;-4.16;100.00;100825.81;5040569;28;20112;-69
2023/02/11 01:08:39;;;;;;;61.40;23.15;;;;;;;-4.02;100.00;100824.31;5052980;28;20380;-70
2023/02/11 01:11:10;;;;;;;65.85;23.52;;;;;;;-4.03;100.00;100816.47;5047052;28;20028;-70
2023/02/11 01:13:37;;;;;;;58.53;22.85;;;;;;;-3.99;100.00;100818.03;5043702;28;20021;-70
2023/02/11 01:16:06;;;;;;;63.83;23.27;;;;;;;-3.99;100.00;100818.91;5051052;28;20017;-70
2023/02/11 01:18:31;;;;;;;48.15;21.35;;;;;;;-3.98;100.00;100815.34;5044299;28;20028;-70
2023/02/11 01:20:56;;;;;;;58.25;22.58;;;;;;;-4.05;100.00;100805.09;5050697;28;20083;-70
2023/02/11 01:23:22;;;;;;;60.92;22.02;;;;;;;-3.85;100.00;100812.19;5053545;28;20029;-70
2023/02/11 01:25:48;;;;;;;58.10;22.70;;;;;;;-3.82;100.00;100815.59;5048369;28;20055;-70
2023/02/11 01:28:20;;;;;;;57.42;22.70;;;;;;;-3.83;100.00;100819.13;5049903;28;20084;-70
2023/02/11 01:30:45;;;;;;;55.28;22.40;;;;;;;-3.85;100.00;100815.72;5041668;28;20033;-67
2023/02/11 01:33:11;;;;;;;57.75;22.80;;;;;;;-3.91;100.00;100820.38;5048624;28;20055;-66
2023/02/11 01:35:40;;;;;;;60.78;22.48;;;;;;;-3.87;100.00;100817.56;5042691;28;20054;-66
2023/02/11 01:38:17;;;;;;;60.90;23.05;;;;;;;-3.87;100.00;100828.13;5053614;28;20032;-66
2023/02/11 01:41:08;;;;;;;55.70;21.65;;;;;;;-3.98;100.00;100814.50;5046685;28;20123;-66
2023/02/11 01:43:37;;;;;;;52.03;21.15;;;;;;;-3.98;100.00;100814.50;5031580;28;20041;-66
2023/02/11 01:46:27;;;;;;;38.45;15.38;;;;;;;-3.96;100.00;100823.19;5027297;28;20044;-66
2023/02/11 01:49:19;;;;;;;43.75;19.58;;;;;;;-3.87;100.00;100820.19;5043868;28;20037;-66
2023/02/11 01:51:47;;;;;;;54.05;20.85;;;;;;;-3.76;100.00;100812.69;5042404;28;20032;-66
2023/02/11 01:57:23;;;;;;;51.35;20.25;;;;;;;-3.51;100.00;100806.41;5034521;28;20562;-66
2023/02/11 02:00:21;;;;;;;46.50;18.80;;;;;;;-3.32;100.00;100803.81;5045832;28;20116;-66
2023/02/11 02:03:08;;;;;;;49.53;19.15;;;;;;;-3.13;100.00;100807.38;5041628;28;20028;-67
2023/02/11 02:13:34;;;;;;;47.08;17.27;;;;;;;-2.71;100.00;100793.16;5131401;22;19904;-74
2023/02/11 02:16:03;;;;;;;45.33;18.58;;;;;;;-2.62;100.00;100793.66;5110491;28;20036;-76
2023/02/11 02:18:47;;;;;;;46.97;19.77;;;;;;;-2.62;100.00;100789.25;5114893;28;20020;-74
2023/02/11 02:21:31;;;;;;;48.10;19.60;;;;;;;-2.65;100.00;100770.81;5130204;28;20014;-75
2023/02/11 02:24:02;;;;;;;44.55;19.13;;;;;;;-2.96;100.00;100758.09;5112369;28;20033;-77
2023/02/11 02:26:50;;;;;;;51.25;21.42;;;;;;;-3.23;100.00;100757.56;5105542;28;20036;-74
2023/02/11 02:29:38;;;;;;;50.30;21.33;;;;;;;-3.45;100.00;100750.56;5108412;28;20035;-75
2023/02/11 02:32:28;;;;;;;51.55;21.23;;;;;;;-3.28;100.00;100767.47;5118070;28;20038;-77
2023/02/11 02:35:23;;;;;;;45.85;20.48;;;;;;;-3.06;100.00;100752.38;5129466;28;20038;-76
2023/02/11 02:38:01;;;;;;;49.00;19.38;;;;;;;-2.95;100.00;100744.81;5122212;28;20024;-76
2023/02/11 02:40:32;;;;;;;53.85;19.33;;;;;;;-3.06;100.00;100730.34;5106175;28;20091;-74
2023/02/11 02:43:00;;;;;;;49.58;19.98;;;;;;;-3.07;100.00;100734.75;5109071;28;20055;-75
2023/02/11 02:45:26;;;;;;;50.78;19.95;;;;;;;-3.17;100.00;100744.91;5096976;28;20027;-77
2023/02/11 02:47:51;;;;;;;52.67;20.33;;;;;;;-3.35;100.00;100729.84;5107428;28;20024;-76
2023/02/11 02:50:23;;;;;;;47.17;19.50;;;;;;;-3.35;100.00;100741.28;5076854;28;20024;-77
2023/02/11 02:53:01;;;;;;;49.47;19.50;;;;;;;-3.42;100.00;100742.47;5092894;28;20031;-75
2023/02/11 02:55:34;;;;;;;53.20;19.38;;;;;;;-3.50;100.00;100719.94;5092089;28;20024;-77
2023/02/11 02:58:05;;;;;;;43.25;18.92;;;;;;;-3.41;100.00;100722.16;5113552;28;20023;-77
2023/02/11 03:00:48;;;;;;;49.50;19.75;;;;;;;-3.34;100.00;100715.69;5108307;28;20027;-76
2023/02/11 03:04:01;;;;;;;53.10;19.80;;;;;;;-3.30;100.00;100701.41;5077301;28;20016;-76
2023/02/11 03:06:37;;;;;;;45.85;18.88;;;;;;;-3.18;100.00;100710.56;5034668;28;20279;-76
2023/02/11 03:09:23;;;;;;;43.92;18.45;;;;;;;-3.03;100.00;100714.31;5031746;28;20029;-77
2023/02/11 03:11:48;;;;;;;48.03;18.17;;;;;;;-3.05;100.00;100706.44;5073634;28;20067;-77
2023/02/11 03:14:17;;;;;;;49.13;18.23;;;;;;;-2.96;100.00;100702.50;5113111;28;20234;-76
2023/02/11 03:16:44;;;;;;;33.78;15.52;;;;;;;-2.80;100.00;100714.13;5101804;28;20051;-76
2023/02/11 03:19:20;;;;;;;40.85;17.52;;;;;;;-2.63;100.00;100707.16;5095564;28;20043;-76
2023/02/11 03:21:48;;;;;;;41.78;16.83;;;;;;;-2.53;100.00;100692.53;5105839;28;20062;-76
2023/02/11 03:24:19;;;;;;;43.25;17.60;;;;;;;-2.44;100.00;100713.28;5094965;28;20027;-77
2023/02/11 03:26:51;;;;;;;43.47;16.98;;;;;;;-2.55;100.00;100705.84;5094006;28;20034;-77
2023/02/11 03:29:35;;;;;;;46.72;17.85;;;;;;;-2.48;100.00;100707.28;5100003;28;20055;-77
2023/02/11 03:32:16;;;;;;;46.10;16.85;;;;;;;-2.43;100.00;100699.97;5103063;28;20038;-77
2023/02/11 03:34:41;;;;;;;48.35;18.83;;;;;;;-2.26;100.00;100711.53;5075190;28;20024;-77
2023/02/11 03:37:24;;;;;;;43.53;16.90;;;;;;;-2.16;100.00;100696.91;5095775;28;20020;-76
2023/02/11 03:39:55;;;;;;;39.90;16.75;;;;;;;-2.05;100.00;100699.88;5104227;28;20400;-76
2023/02/11 03:42:23;;;;;;;44.50;17.67;;;;;;;-1.92;100.00;100721.34;5087835;28;20024;-76
2023/02/11 03:44:56;;;;;;;48.03;18.58;;;;;;;-1.93;100.00;100718.78;5114736;28;20035;-77
2023/02/11 03:47:24;;;;;;;42.92;17.80;;;;;;;-2.07;100.00;100712.38;5128454;28;20050;-75
2023/02/11 03:49:52;;;;;;;42.38;17.05;;;;;;;-2.06;100.00;100732.66;5135256;28;20023;-77
2023/02/11 03:52:20;;;;;;;41.08;17.48;;;;;;;-2.14;100.00;100732.16;5117644;28;20016;-77
2023/02/11 03:54:50;;;;;;;36.90;14.23;;;;;;;-2.18;100.00;100724.44;5130788;28;20031;-77
2023/02/11 03:57:15;;;;;;;;;;;;;;;-2.19;100.00;100726.22;5125050;28;20115;-77
2023/02/11 03:59:57;;;;;;;42.40;17.02;;;;;;;-2.13;100.00;100725.91;5110262;28;19918;-77
2023/02/11 04:02:31;;;;;;;37.20;16.70;;;;;;;-2.01;100.00;100722.66;5103872;28;20492;-77
2023/02/11 04:04:57;;;;;;;43.72;17.63;;;;;;;-1.83;100.00;100728.84;5098106;28;20024;-76
2023/02/11 04:07:22;;;;;;;47.47;18.33;;;;;;;-1.74;100.00;100722.22;5110918;28;20035;-76
2023/02/11 04:09:48;;;;;;;39.40;16.88;;;;;;;-1.61;100.00;100725.97;5098143;28;20015;-76
2023/02/11 04:12:13;;;;;;;36.30;16.63;;;;;;;-1.58;100.00;100711.69;5097764;28;20032;-76
2023/02/11 04:14:38;;;;;;;45.10;17.77;;;;;;;-1.45;100.00;100723.38;5085777;28;20027;-76
2023/02/11 04:17:03;;;;;;;46.17;17.30;;;;;;;-1.53;100.00;100708.78;5102396;28;20035;-76
2023/02/11 04:19:29;;;;;;;44.00;17.45;;;;;;;-1.59;100.00;100702.88;5093510;28;20024;-76
2023/02/11 04:21:54;;;;;;;38.38;17.83;;;;;;;-1.60;100.00;100708.22;5084072;28;20031;-76
2023/02/11 04:24:19;;;;;;;39.65;17.05;;;;;;;-1.60;100.00;100706.47;5107790;28;20019;-76
2023/02/11 04:26:45;;;;;;;38.42;17.20;;;;;;;-1.63;100.00;100709.25;5082723;28;20102;-77
2023/02/11 04:29:10;;;;;;;40.97;17.60;;;;;;;-1.60;100.00;100711.78;5109264;28;20492;-76
2023/02/11 04:31:35;;;;;;;36.95;16.65;;;;;;;-1.61;100.00;100710.03;5079157;28;20504;-76
2023/02/11 04:34:01;;;;;;;39.97;18.02;;;;;;;-1.60;100.00;100709.13;5095632;28;20358;-76
2023/02/11 04:36:26;;;;;;;44.08;18.30;;;;;;;-1.45;100.00;100709.25;5103946;28;20020;-76
2023/02/11 04:38:51;;;;;;;37.45;16.63;;;;;;;-1.38;100.00;100695.56;5112671;28;20492;-76
2023/02/11 04:41:17;;;;;;;52.47;18.77;;;;;;;-1.41;100.00;100700.19;5095673;28;20027;-77
2023/02/11 04:43:42;;;;;;;42.17;18.08;;;;;;;-1.34;100.00;100704.22;5095779;28;20440;-76
2023/02/11 04:46:07;;;;;;;40.63;17.58;;;;;;;-1.36;100.00;100714.94;5100589;28;20020;-76
2023/02/11 04:48:34;;;;;;;37.72;17.00;;;;;;;-1.39;100.00;100712.47;5112423;28;20019;-76
2023/02/11 04:50:59;;;;;;;40.72;17.90;;;;;;;-1.36;100.00;100708.78;5083713;28;20030;-76
2023/02/11 04:53:24;;;;;;;38.50;16.85;;;;;;;-1.35;100.00;100703.38;5110962;28;20102;-76
2023/02/11 04:55:50;;;;;;;41.75;17.42;;;;;;;-1.20;100.00;100691.09;5087054;28;20067;-77
2023/02/11 04:58:16;;;;;;;48.88;18.77;;;;;;;-1.24;100.00;100699.28;5090556;28;20020;-76
2023/02/11 05:00:42;;;;;;;40.35;18.10;;;;;;;-1.44;100.00;100685.28;5104866;28;20027;-76
2023/02/11 05:03:07;;;;;;;48.00;18.48;;;;;;;-1.51;100.00;100683.88;5076720;28;20393;-76
2023/02/11 05:05:32;;;;;;;40.45;18.95;;;;;;;-1.47;100.00;100676.59;5086331;28;20020;-76
2023/02/11 05:07:57;;;;;;;39.60;17.40;;;;;;;-1.61;100.00;100672.88;5085861;27;20043;-76
2023/02/11 05:10:23;;;;;;;52.22;18.80;;;;;;;-1.74;100.00;100650.56;5105525;27;20112;-76
2023/02/11 05:12:48;;;;;;;43.30;16.50;;;;;;;-1.62;100.00;100670.31;5114162;28;20110;-76
2023/02/11 05:15:14;;;;;;;50.90;17.20;;;;;;;-1.58;100.00;100672.72;5084202;28;20028;-77
2023/02/11 05:17:39;;;;;;;41.90;16.63;;;;;;;-1.52;100.00;100662.72;5082122;28;20022;-77
2023/02/11 05:20:05;;;;;;;37.47;16.83;;;;;;;-1.45;100.00;100653.50;5095814;28;20030;-76
2023/02/11 05:22:31;;;;;;;41.72;17.45;;;;;;;-1.35;100.00;100657.38;5089007;28;20008;-79
2023/02/11 05:24:56;;;;;;;44.78;18.20;;;;;;;-1.33;100.00;100655.50;5094661;28;20305;-78
2023/02/11 05:27:21;;;;;;;62.83;20.83;;;;;;;-1.40;100.00;100648.81;5097318;28;20019;-79
2023/02/11 05:29:46;;;;;;;55.50;21.85;;;;;;;-1.38;100.00;100670.81;5092954;28;20051;-75
2023/02/11 05:32:12;;;;;;;45.60;20.20;;;;;;;-1.33;100.00;100661.69;5110971;28;20103;-74
2023/02/11 05:34:37;;;;;;;46.72;18.30;;;;;;;-1.25;100.00;100668.38;5110179;28;20096;-76
2023/02/11 05:37:02;;;;;;;41.72;17.73;;;;;;;-1.15;100.00;100658.97;5114896;28;20031;-79
2023/02/11 05:39:28;;;;;;;40.17;18.42;;;;;;;-1.04;100.00;100647.78;5094855;28;20026;-76
2023/02/11 05:41:53;;;;;;;38.92;17.77;;;;;;;-0.93;100.00;100674.59;5095256;28;20027;-73
2023/02/11 05:44:18;;;;;;;42.78;17.88;;;;;;;-0.86;100.00;100670.66;5096748;28;20089;-81
2023/02/11 05:46:44;;;;;;;36.72;17.40;;;;;;;-0.95;100.00;100668.50;5093185;28;20076;-80
2023/02/11 05:49:09;;;;;;;34.78;16.00;;;;;;;-0.91;100.00;100672.72;5113288;28;20027;-76
2023/02/11 05:51:35;;;;;;;39.47;17.33;;;;;;;-0.91;100.00;100673.56;5105195;28;20091;-82
2023/02/11 05:54:00;;;;;;;35.72;16.20;;;;;;;-1.01;100.00;100676.81;5049853;28;20041;-81
2023/02/11 05:56:27;;;;;;;39.50;16.90;;;;;;;-0.95;100.00;100697.72;5092809;28;20042;-81
2023/02/11 05:58:53;;;;;;;36.58;15.88;;;;;;;-1.25;100.00;100660.41;5095289;28;20039;-80
2023/02/11 06:01:18;;;;;;;37.13;16.52;;;;;;;-1.13;100.00;100670.34;5082578;28;20028;-78
2023/02/11 06:03:43;;;;;;;40.13;16.17;;;;;;;-1.23;100.00;100675.31;5105055;28;20024;-77
2023/02/11 06:06:10;;;;;;;46.45;17.45;;;;;;;-1.36;100.00;100680.44;5095478;28;20469;-81
2023/02/11 06:08:36;;;;;;;41.35;18.75;;;;;;;-1.50;100.00;100663.50;5087538;28;20020;-77
2023/02/11 06:11:01;;;;;;;46.25;18.50;;;;;;;-1.55;100.00;100664.63;5085134;28;20034;-78
2023/02/11 06:14:02;;;;;;;40.67;18.15;;;;;;;-1.39;100.00;100679.72;5081843;28;20031;-83
2023/02/11 06:16:27;;;;;;;44.08;18.50;;;;;;;-1.16;100.00;100682.00;5063829;28;20099;-66
2023/02/11 06:18:53;;;;;;;39.15;17.60;;;;;;;-1.07;100.00;100680.66;5047969;28;20044;-66
2023/02/11 06:21:19;;;;;;;39.65;17.73;;;;;;;-0.97;100.00;100673.91;5052950;28;20091;-66
2023/02/11 06:23:45;;;;;;;35.95;16.33;;;;;;;-0.74;100.00;100674.44;5056364;28;20039;-66
2023/02/11 06:26:17;;;;;;;36.00;16.10;;;;;;;-0.69;100.00;100665.25;5065717;28;20036;-66
2023/02/11 06:28:43;;;;;;;35.78;16.02;;;;;;;-0.70;100.00;100663.56;5050138;28;20500;-66
2023/02/11 06:31:10;;;;;;;35.05;16.25;;;;;;;-0.66;100.00;100664.22;5068247;28;20059;-66
2023/02/11 06:33:36;;;;;;;37.47;15.90;;;;;;;-0.60;100.00;100658.59;5070707;28;20074;-66
2023/02/11 06:36:02;;;;;;;38.17;17.20;;;;;;;-0.71;100.00;100667.16;5063907;28;20448;-66
2023/02/11 06:38:28;;;;;;;42.85;17.95;;;;;;;-0.77;100.00;100669.28;5061044;28;20032;-66
2023/02/11 06:40:53;;;;;;;35.03;16.63;;;;;;;-0.81;100.00;100683.69;5054000;28;20086;-66
2023/02/11 06:45:54;;;;;;;38.38;17.35;;;;;;;-0.85;100.00;100664.41;5040263;22;20042;-74
2023/02/11 06:48:21;;;;;;;38.55;17.30;;;;;;;-0.87;100.00;100668.94;5002634;28;20026;-74
2023/02/11 06:50:46;;;;;;;50.67;19.88;;;;;;;-0.91;100.00;100673.56;5012318;28;20037;-74
2023/02/11 06:53:11;;;;;;;42.58;18.90;;;;;;;-0.90;100.00;100674.44;4999643;28;20030;-81
2023/02/11 06:55:37;;;;;;;41.50;19.13;;;;;;;-0.89;100.00;100673.50;4989758;28;20109;-75
2023/02/11 06:58:02;;;;;;;41.75;18.73;;;;;;;-0.88;100.00;100680.53;4991032;28;20034;-75
2023/02/11 07:00:28;;;;;;;49.90;19.02;;;;;;;-0.81;100.00;100673.06;4992563;28;20030;-74
2023/02/11 07:02:54;;;;;;;53.17;19.38;;;;;;;-0.68;100.00;100679.44;4973448;28;20101;-74
2023/02/11 07:05:19;;;;;;;41.15;18.60;;;;;;;-0.78;100.00;100679.06;4991066;28;20664;-75
2023/02/11 07:07:45;;;;;;;49.08;19.73;;;;;;;-0.92;100.00;100670.97;4991551;28;20040;-75
2023/02/11 07:10:10;;;;;;;41.75;18.65;;;;;;;-0.82;100.00;100666.88;4991762;28;20026;-75
2023/02/11 07:12:36;;;;;;;48.15;20.85;;;;;;;-0.73;100.00;100676.16;4992743;28;20031;-76
2023/02/11 07:15:01;;;;;;;45.28;20.42;;;;;;;-0.65;100.00;100663.31;4973289;28;20054;-75
2023/02/11 07:17:27;;;;;;;49.40;20.40;;;;;;;-0.63;100.00;100672.03;4982075;28;20114;-75
2023/02/11 07:19:52;;;;;;;44.80;19.50;;;;;;;-0.52;100.00;100674.09;4998239;28;20057;-74
2023/02/11 07:22:17;;;;;;;44.15;19.75;;;;;;;-0.23;100.00;100693.72;4990231;28;20420;-75
2023/02/11 07:24:43;;;;;;;45.70;20.85;;;;;;;-0.16;100.00;100683.56;4991080;28;20041;-75
2023/02/11 07:27:08;;;;;;;48.22;20.77;;;;;;;-0.15;100.00;100680.84;4987198;28;20036;-74
2023/02/11 07:29:33;;;;;;;46.40;20.55;;;;;;;0.06;100.00;100673.41;4994340;28;20018;-75
2023/02/11 07:31:59;;;;;;;37.45;17.58;;;;;;;0.19;100.00;100677.06;4994501;28;20033;-74
2023/02/11 07:34:24;;;;;;;34.58;15.45;;;;;;;0.41;100.00;100675.75;4982718;28;20042;-75
2023/02/11 07:36:49;;;;;;;38.38;16.50;;;;;;;0.34;100.00;100664.63;5000882;28;20061;-78
2023/02/11 07:39:15;;;;;;;38.05;15.88;;;;;;;0.49;100.00;100670.81;4992865;28;20027;-75
2023/02/11 07:41:40;;;;;;;36.50;16.95;;;;;;;0.48;100.00;100668.28;4978658;28;20030;-77
2023/02/11 07:44:07;;;;;;;37.92;16.85;;;;;;;0.53;100.00;100659.06;4999707;28;20369;-82
2023/02/11 07:46:34;;;;;;;40.55;15.52;;;;;;;0.40;100.00;100669.59;4993904;28;20065;-77
2023/02/11 07:48:59;;;;;;;37.20;15.98;;;;;;;0.40;100.00;100653.59;4984095;28;20038;-78
2023/02/11 07:51:29;;;;;;;34.17;16.00;;;;;;;0.49;100.00;100660.16;4981720;28;20022;-79
2023/02/11 07:53:56;;;;;;;33.17;15.07;;;;;;;0.62;100.00;100666.47;5000692;28;20028;-80
2023/02/11 07:56:22;;;;;;;35.05;14.82;;;;;;;0.86;100.00;100660.56;4994051;28;20492;-77
2023/02/11 07:58:48;;;;;;;33.70;15.15;;;;;;;1.16;100.00;100651.63;4994875;28;20110;-80
2023/02/11 08:01:16;;;;;;;38.55;15.52;;;;;;;1.93;100.00;100658.13;4970894;28;20433;-78
2023/02/11 08:03:42;;;;;;;32.30;15.30;;;;;;;3.55;100.00;100661.91;4993024;28;20036;-76
2023/02/11 08:06:13;;;;;;;33.33;14.93;;;;;;;5.36;100.00;100658.66;4978791;28;20113;-77
2023/02/11 08:08:39;;;;;;;32.90;15.05;;;;;;;4.87;100.00;100673.31;4995970;28;20030;-73
2023/02/11 08:11:09;;;;;;;32.70;15.43;;;;;;;3.86;100.00;100667.69;4981968;28;20034;-78
2023/02/11 08:13:35;;;;;;;33.08;15.43;;;;;;;3.74;100.00;100667.63;4988532;28;20022;-74
2023/02/11 08:16:01;;;;;;;33.83;15.18;;;;;;;3.51;100.00;100676.47;4986433;28;20377;-78
2023/02/11 08:18:26;;;;;;;32.17;15.20;;;;;;;3.04;100.00;100672.75;4988741;28;20538;-77
2023/02/11 08:20:51;;;;;;;35.08;16.77;;;;;;;2.87;100.00;100671.25;5003521;28;20042;-81
2023/02/11 08:23:30;;;;;;;31.65;16.50;;;;;;;2.97;100.00;100666.13;4997076;28;20010;-84
2023/02/11 08:26:20;;;;;;;;;;;;;;;5.74;100.00;100668.13;5027695;22;20053;-65
2023/02/11 08:28:47;;;;;;;35.38;15.75;;;;;;;9.18;83.09;100659.78;5032012;28;19927;-67
2023/02/11 08:31:21;;;;;;;39.90;19.05;;;;;;;11.06;66.40;100643.63;5030912;28;20087;-67
2023/02/11 08:33:48;;;;;;;31.95;16.15;;;;;;;11.04;63.25;100648.34;5029951;28;20028;-67
2023/02/11 08:36:20;;;;;;;32.40;16.05;;;;;;;10.63;62.17;100657.03;5047200;28;20108;-68
2023/02/11 08:38:46;;;;;;;31.92;14.70;;;;;;;10.01;60.38;100639.94;5058217;28;20083;-64
2023/02/11 08:41:13;;;;;;;25.95;14.07;;;;;;;9.37;64.36;100645.31;5054995;28;20028;-65
2023/02/11 08:43:42;;;;;;;27.58;15.93;;;;;;;8.00;72.39;100662.81;5052236;28;20135;-65
2023/02/11 08:46:12;;;;;;;35.65;14.18;;;;;;;6.89;84.26;100657.53;5049642;28;20056;-67
2023/02/11 08:48:37;;;;;;;26.55;13.68;;;;;;;7.74;82.03;100656.25;5048522;28;20462;-67
2023/02/11 08:51:08;;;;;;;26.58;13.50;;;;;;;9.58;70.12;100653.16;5045052;28;20028;-67
2023/02/11 08:53:34;;;;;;;24.42;12.85;;;;;;;11.80;60.38;100656.44;5052202;28;20556;-67
2023/02/11 08:56:00;;;;;;;29.25;15.43;;;;;;;10.26;61.22;100660.78;5049946;28;20484;-64
2023/02/11 08:58:25;;;;;;;26.55;13.45;;;;;;;9.58;63.32;100668.53;5050765;28;20073;-66
2023/02/11 09:00:51;;;;;;;23.63;13.50;;;;;;;9.38;65.84;100655.16;5044101;28;20152;-67
2023/02/11 09:03:16;;;;;;;26.88;13.38;;;;;;;8.95;67.08;100653.88;5037883;28;20480;-66
2023/02/11 09:05:43;;;;;;;25.13;13.32;;;;;;;8.49;69.30;100668.22;5044049;28;20518;-66
2023/02/11 09:08:09;;;;;;;25.05;12.88;;;;;;;8.69;68.92;100652.84;5063365;28;20039;-66
2023/02/11 09:10:35;;;;;;;22.45;12.68;;;;;;;9.26;67.59;100642.00;5047689;28;20032;-66
2023/02/11 09:13:00;;;;;;;25.02;13.50;;;;;;;9.36;66.35;100635.53;5048663;28;20085;-66
2023/02/11 09:15:25;;;;;;;25.00;13.20;;;;;;;8.50;68.75;100633.00;5050166;28;20107;-66
2023/02/11 09:17:51;;;;;;;24.23;14.20;;;;;;;8.74;71.40;100637.06;5049871;28;20037;-65
2023/02/11 09:20:16;;;;;;;28.85;14.38;;;;;;;8.09;74.19;100643.06;5051524;28;20035;-65
2023/02/11 09:22:42;;;;;;;26.90;13.70;;;;;;;7.61;78.48;100656.50;5054721;28;20455;-65
2023/02/11 09:25:08;;;;;;;28.92;13.63;;;;;;;8.61;75.77;100650.00;5050161;28;20055;-66
2023/02/11 09:27:33;;;;;;;28.20;12.90;;;;;;;10.47;65.64;100646.09;5046083;28;20020;-63
2023/02/11 09:29:58;;;;;;;22.05;13.27;;;;;;;11.07;62.48;100640.72;5047329;28;21751;-65
2023/02/11 09:32:24;;;;;;;25.45;13.73;;;;;;;12.05;60.83;100632.06;5048720;28;20060;-64
2023/02/11 09:34:49;;;;;;;27.20;14.65;;;;;;;14.15;52.66;100648.13;5048392;28;20070;-64
2023/02/11 09:37:15;;;;;;;24.80;14.18;;;;;;;16.19;48.68;100629.44;5048295;28;20036;-65
2023/02/11 09:39:40;;;;;;;44.08;19.55;;;;;;;16.83;46.43;100636.72;5048643;28;20024;-64
2023/02/11 09:42:08;;;;;;;50.92;19.98;;;;;;;15.93;46.41;100627.28;5051887;28;20105;-64
2023/02/11 09:44:36;;;;;;;27.70;14.73;;;;;;;14.28;48.08;100636.59;5048665;28;20537;-65
2023/02/11 09:47:22;;;;;;;25.52;15.48;;;;;;;12.47;51.73;100659.09;5048885;28;20082;-66
2023/02/11 09:49:50;;;;;;;22.17;13.38;;;;;;;13.54;50.38;100653.41;5053380;28;20055;-65
2023/02/11 09:52:34;;;;;;;22.13;14.30;;;;;;;15.00;48.32;100650.59;5047558;28;20492;-65
2023/02/11 09:55:03;;;;;;;20.27;13.32;;;;;;;15.57;46.88;100651.81;5051944;28;20622;-65
2023/02/11 09:57:34;;;;;;;24.98;13.30;;;;;;;16.02;44.95;100662.66;5060337;28;20091;-65
2023/02/11 10:00:02;;;;;;;24.90;14.52;;;;;;;16.04;45.44;100653.22;5048833;28;20043;-66
2023/02/11 10:02:54;;;;;;;23.27;13.68;;;;;;;14.47;47.72;100664.19;5042413;28;20467;-66
2023/02/11 10:05:35;;;;;;;22.00;12.85;;;;;;;14.95;47.19;100672.13;5053258;28;20594;-65
2023/02/11 10:08:38;;;;;;;25.50;14.60;;;;;;;16.45;44.97;100663.47;5054949;28;20373;-66
2023/02/11 10:11:27;;;;;;;21.48;13.25;;;;;;;16.29;44.59;100661.88;5054998;28;20028;-64
2023/02/11 10:14:05;;;;;;;21.38;12.52;;;;;;;15.86;44.92;100653.66;5053415;28;20048;-64
2023/02/11 10:16:53;;;;;;;23.23;12.38;;;;;;;15.86;45.06;100653.66;5050868;28;20033;-64
2023/02/11 10:19:18;;;;;;;19.98;12.30;;;;;;;16.30;45.02;100660.00;5046717;28;20119;-64
2023/02/11 10:21:57;;;;;;;28.10;15.25;;;;;;;16.56;44.13;100653.94;5052479;28;20536;-65
2023/02/11 10:24:24;;;;;;;27.67;15.40;;;;;;;16.57;44.10;100656.47;5056353;28;20024;-65
2023/02/11 10:26:51;;;;;;;23.25;14.82;;;;;;;16.43;44.27;100660.13;5047021;28;20058;-65
2023/02/11 10:29:39;;;;;;;20.30;13.18;;;;;;;16.06;45.01;100656.63;5052191;28;20024;-65
2023/02/11 10:32:35;;;;;;;18.13;10.95;;;;;;;17.25;43.94;100648.56;5044883;28;20029;-65
2023/02/11 10:35:14;;;;;;;18.17;10.32;;;;;;;18.75;41.32;100632.97;5054298;28;20198;-65
2023/02/11 10:37:40;;;;;;;16.50;11.00;;;;;;;18.66;41.72;100642.44;5056254;28;20017;-66
2023/02/11 10:40:13;;;;;;;19.73;10.77;;;;;;;19.69;40.08;100630.84;5055178;28;20368;-65
2023/02/11 10:42:40;;;;;;;15.18;9.75;;;;;;;19.25;40.08;100630.53;5047232;28;20031;-65
2023/02/11 10:45:16;;;;;;;15.98;9.48;;;;;;;18.74;40.77;100622.19;5041241;28;20075;-65
2023/02/11 10:47:42;;;;;;;13.90;9.50;;;;;;;20.10;39.10;100611.16;5049835;28;20021;-64
2023/02/11 10:50:19;;;;;;;17.02;9.77;;;;;;;19.37;39.73;100608.78;5046593;28;20035;-65
2023/02/11 10:52:44;;;;;;;18.25;10.65;;;;;;;19.17;40.20;100621.72;5055820;28;20021;-65
2023/02/11 10:55:12;;;;;;;14.70;9.57;;;;;;;20.57;39.25;100613.59;5060575;28;20024;-64
2023/02/11 10:57:55;;;;;;;15.25;9.80;;;;;;;20.40;38.11;100609.69;5054022;28;20480;-65
2023/02/11 11:00:31;;;;;;;14.07;9.27;;;;;;;20.37;38.36;100610.97;5050663;28;20131;-65
2023/02/11 11:02:58;;;;;;;16.10;8.32;;;;;;;21.99;37.04;100599.69;5045793;28;20028;-65
2023/02/11 11:05:34;;;;;;;13.55;8.63;;;;;;;22.16;36.64;100597.06;5054782;28;20078;-61
2023/02/11 11:08:02;;;;;;;13.90;8.30;;;;;;;24.04;34.29;100596.06;5046669;28;20044;-62
2023/02/11 11:10:43;;;;;;;13.40;8.18;;;;;;;24.13;34.35;100593.75;5068822;28;20037;-62
2023/02/11 11:13:29;;;;;;;15.63;8.52;;;;;;;22.83;34.76;100599.59;5047194;28;20142;-62
2023/02/11 11:16:13;;;;;;;13.00;8.18;;;;;;;22.29;35.75;100602.41;5046081;28;20142;-65
2023/02/11 11:18:40;;;;;;;14.32;8.43;;;;;;;23.83;35.27;100592.09;5047384;28;20688;-65
2023/02/11 11:21:11;;;;;;;12.93;8.55;;;;;;;25.34;33.16;100595.97;5053329;28;20054;-65
2023/02/11 11:23:38;;;;;;;11.57;8.00;;;;;;;26.93;31.51;100592.78;5053664;28;20081;-67
2023/02/11 11:26:11;;;;;;;11.27;8.00;;;;;;;28.56;30.21;100578.59;5043620;28;20442;-67
2023/02/11 11:28:39;;;;;;;12.23;8.23;;;;;;;28.40;30.17;100574.09;5044920;28;20029;-67
2023/02/11 11:31:13;;;;;;;10.75;7.60;;;;;;;29.21;28.54;100578.78;5035088;28;20536;-66